Time;durP1;ratioP1;P1;durP2;ratioP2;P2;SDS_P1;SDS_P2;PMS_P1;PMS_P2;Temp;Humidity;BMP_temperature;BMP_pressure;BME280_temperature;BME280_humidity;BME280_pressure;Samples;Min_cycle;Max_cycle;Signal;HPM_P1;HPM_P2
2023/03/28 00:04:56;;;;;;;1999.90;999.90;;;1.80;99.90;;;;;;6729117;88;20205;-78
2023/03/28 00:14:57;;;;;;;1999.90;999.90;;;1.80;99.90;;;;;;6730969;88;20282;-79
2023/03/28 00:24:58;;;;;;;1999.90;999.90;;;1.80;99.90;;;;;;6730355;88;20197;-78
2023/03/28 00:34:58;;;;;;;1999.90;999.90;;;1.80;99.90;;;;;;6724335;88;20528;-78
2023/03/28 00:44:59;;;;;;;1999.90;999.90;;;1.80;99.90;;;;;;6726687;88;20304;-79
2023/03/28 00:55:03;;;;;;;1999.90;999.90;;;1.90;99.90;;;;;;6723041;88;20675;-79
2023/03/28 01:05:04;;;;;;;1999.90;999.90;;;1.70;99.90;;;;;;6722846;88;20588;-79
2023/03/28 01:15:07;;;;;;;1999.90;999.90;;;1.70;99.90;;;;;;6723438;88;20247;-79
2023/03/28 01:25:46;;;;;;;1999.90;999.90;;;1.60;99.90;;;;;;6721645;88;20189;-79
2023/03/28 01:36:09;;;;;;;1999.90;999.90;;;1.60;99.90;;;;;;6655293;88;20179;-79
2023/03/28 01:46:20;;;;;;;1999.90;999.90;;;1.50;99.90;;;;;;6705409;88;20820;-78
2023/03/28 01:56:38;;;;;;;1999.90;999.90;;;1.50;99.90;;;;;;6699841;88;20320;-78
2023/03/28 02:06:45;;;;;;;1999.90;999.90;;;1.40;99.90;;;;;;6704226;88;20214;-78
2023/03/28 02:16:48;;;;;;;1999.90;999.90;;;1.40;99.90;;;;;;6704708;88;20216;-78
2023/03/28 02:26:49;;;;;;;1999.90;999.90;;;1.50;99.90;;;;;;6700929;88;20186;-78
2023/03/28 02:37:13;;;;;;;1999.90;999.90;;;1.40;99.90;;;;;;6706451;88;20193;-79
2023/03/28 02:47:32;;;;;;;1999.90;999.90;;;1.30;99.90;;;;;;6695153;88;20200;-77
2023/03/28 02:57:52;;;;;;;1999.90;999.90;;;1.30;99.90;;;;;;6707388;88;20982;-79
2023/03/28 03:07:52;;;;;;;1999.90;999.90;;;1.00;99.90;;;;;;6703935;88;20246;-78
2023/03/28 03:17:53;;;;;;;1999.90;999.90;;;1.10;99.90;;;;;;6706440;88;20342;-79
2023/03/28 03:27:53;;;;;;;1999.90;999.90;;;1.10;99.90;;;;;;6706963;88;20321;-79
2023/03/28 03:37:54;;;;;;;1999.90;999.90;;;0.90;99.90;;;;;;6707306;88;20209;-79
2023/03/28 03:47:55;;;;;;;1999.90;999.90;;;1.00;99.90;;;;;;6706740;88;21066;-79
2023/03/28 03:57:55;;;;;;;1999.90;999.90;;;1.00;99.90;;;;;;6706124;88;20197;-79
2023/03/28 04:07:58;;;;;;;1999.90;999.90;;;1.20;99.90;;;;;;6703506;88;20199;-78
2023/03/28 04:17:58;;;;;;;1999.90;999.90;;;1.10;99.90;;;;;;6705573;88;20327;-79
2023/03/28 04:28:00;;;;;;;1999.90;999.90;;;1.10;99.90;;;;;;6699989;77;20181;-75
2023/03/28 04:38:01;;;;;;;1999.90;999.90;;;1.00;99.90;;;;;;6717380;88;20286;-75
2023/03/28 04:48:02;;;;;;;1999.90;999.90;;;0.90;99.90;;;;;;6706418;88;20293;-76
2023/03/28 04:58:02;;;;;;;1999.90;999.90;;;0.90;99.90;;;;;;6710455;88;20309;-76
2023/03/28 05:08:03;;;;;;;1999.90;999.90;;;0.70;99.90;;;;;;6700697;88;20194;-76
2023/03/28 05:18:04;;;;;;;1999.90;999.90;;;0.60;99.90;;;;;;6704843;88;20194;-75
2023/03/28 05:28:05;;;;;;;1999.90;999.90;;;0.40;99.90;;;;;;6712499;88;20199;-77
2023/03/28 05:38:05;;;;;;;1999.90;999.90;;;0.30;99.90;;;;;;6706439;88;20190;-77
2023/03/28 05:48:06;;;;;;;1999.90;999.90;;;0.10;99.90;;;;;;6682089;88;20257;-77
2023/03/28 05:58:06;;;;;;;1999.90;999.90;;;0.20;99.90;;;;;;6707570;88;20201;-77
2023/03/28 06:08:08;;;;;;;1999.90;999.90;;;0.30;99.90;;;;;;6705611;88;20787;-77
2023/03/28 06:18:08;;;;;;;1999.90;999.90;;;0.50;99.90;;;;;;6693566;88;20185;-77
2023/03/28 06:28:09;;;;;;;1999.90;999.90;;;0.60;99.90;;;;;;6722707;88;20191;-77
2023/03/28 06:38:10;;;;;;;1999.90;999.90;;;1.00;99.90;;;;;;6707679;88;20686;-77
2023/03/28 06:48:10;;;;;;;1999.90;999.90;;;1.30;99.90;;;;;;6706885;88;20302;-77
2023/03/28 06:58:11;;;;;;;1999.90;999.90;;;1.70;99.90;;;;;;6706662;88;20198;-76
2023/03/28 07:08:12;;;;;;;1999.90;999.90;;;2.40;99.90;;;;;;6707981;88;20253;-77
2023/03/28 07:18:12;;;;;;;1999.90;999.90;;;2.80;99.90;;;;;;6707179;88;20189;-77
2023/03/28 07:28:13;;;;;;;1999.90;999.90;;;3.20;99.90;;;;;;6689455;88;20704;-78
2023/03/28 07:38:14;;;;;;;1999.90;999.90;;;3.50;99.90;;;;;;6702845;88;20201;-78
2023/03/28 07:48:14;;;;;;;1999.90;999.90;;;4.50;99.90;;;;;;6706145;88;20736;-78
2023/03/28 07:58:15;;;;;;;1999.90;999.90;;;4.90;99.90;;;;;;6699199;88;20665;-77
2023/03/28 08:08:18;;;;;;;1999.90;999.90;;;5.30;99.90;;;;;;6716500;88;20302;-77
2023/03/28 08:18:20;;;;;;;1999.90;999.90;;;5.90;99.90;;;;;;6692677;88;20203;-77
2023/03/28 08:28:21;;;;;;;1999.90;999.90;;;5.80;99.90;;;;;;6695175;88;20275;-77
2023/03/28 08:38:22;;;;;;;1999.90;999.90;;;6.50;99.90;;;;;;6725697;88;20214;-77
2023/03/28 08:48:36;;;;;;;1999.90;999.90;;;7.20;99.90;;;;;;6707745;88;20216;-77
2023/03/28 08:58:49;;;;;;;1999.90;999.90;;;8.10;99.90;;;;;;6704716;88;20191;-76
2023/03/28 09:09:25;;;;;;;1999.90;999.90;;;8.20;99.90;;;;;;6702512;88;20193;-77
2023/03/28 09:19:52;;;;;;;1999.90;999.90;;;8.70;99.90;;;;;;6699048;88;20296;-77
2023/03/28 09:30:10;;;;;;;1999.90;999.90;;;8.70;99.90;;;;;;6697396;88;20226;-77
2023/03/28 09:40:21;;;;;;;1999.90;999.90;;;8.60;99.80;;;;;;6684661;88;20266;-77
2023/03/28 09:50:22;;;;;;;1999.90;999.90;;;8.40;97.80;;;;;;6698576;88;20217;-76
2023/03/28 10:00:23;;;;;;;1999.90;999.90;;;8.60;98.50;;;;;;6686552;88;20223;-77
2023/03/28 10:10:24;;;;;;;1999.90;999.90;;;9.00;96.00;;;;;;6701422;88;20170;-77
2023/03/28 10:20:36;;;;;;;1999.90;999.90;;;9.40;94.80;;;;;;6727616;76;20188;-78
2023/03/28 10:30:37;;;;;;;1999.90;999.90;;;9.10;95.90;;;;;;6730288;88;20328;-79
2023/03/28 10:40:37;;;;;;;1999.90;999.90;;;9.00;94.70;;;;;;6738432;88;20320;-79
2023/03/28 10:50:44;;;;;;;1999.90;999.90;;;9.00;94.90;;;;;;6738941;88;20681;-80
2023/03/28 11:01:25;;;;;;;1999.90;999.90;;;9.10;95.70;;;;;;6736820;88;20352;-78
2023/03/28 11:11:47;;;;;;;1999.90;999.90;;;9.50;94.70;;;;;;6755064;88;20177;-79
2023/03/28 11:22:04;;;;;;;1999.90;999.90;;;9.10;95.00;;;;;;6749811;88;20192;-79
2023/03/28 11:32:14;;;;;;;;;;;9.30;95.60;;;;;;6751637;88;20208;-79
2023/03/28 11:42:23;;;;;;;1999.90;999.90;;;9.30;96.10;;;;;;6742396;88;20069;-79
2023/03/28 11:52:28;;;;;;;1999.90;999.90;;;9.70;96.60;;;;;;6740508;88;20224;-80
2023/03/28 12:02:51;;;;;;;1999.90;999.90;;;9.60;97.80;;;;;;6733913;88;20186;-80
2023/03/28 12:13:12;;;;;;;1999.90;999.90;;;9.50;97.70;;;;;;6732768;88;20199;-80
2023/03/28 12:23:22;;;;;;;1999.90;999.90;;;10.70;98.50;;;;;;6740573;88;20256;-81
2023/03/28 12:33:50;;;;;;;1999.90;999.90;;;10.80;95.10;;;;;;6744560;88;20224;-79
2023/03/28 12:44:12;;;;;;;1999.90;999.90;;;11.20;93.60;;;;;;6747946;88;20242;-78
2023/03/28 12:54:16;;;;;;;1999.90;999.90;;;10.80;94.80;;;;;;6763262;88;20240;-78
2023/03/28 13:04:30;;;;;;;1999.90;999.90;;;10.90;94.70;;;;;;6757700;88;20247;-80
2023/03/28 13:14:37;;;;;;;1999.90;999.90;;;11.40;93.40;;;;;;6753596;88;20287;-79
2023/03/28 13:24:38;;;;;;;1999.90;999.90;;;11.50;94.00;;;;;;6750733;88;20197;-80
2023/03/28 13:34:49;;;;;;;1999.90;999.90;;;11.10;93.90;;;;;;6734095;88;20214;-79
2023/03/28 13:44:53;;;;;;;1999.90;999.90;;;11.30;93.50;;;;;;6727563;88;20198;-78
2023/03/28 13:55:01;;;;;;;1999.90;999.90;;;11.00;94.30;;;;;;6729174;88;20243;-78
2023/03/28 14:05:24;;;;;;;1999.90;999.90;;;11.10;93.00;;;;;;6676273;88;20359;-78
2023/03/28 14:15:28;;;;;;;1999.90;999.90;;;12.60;91.10;;;;;;6687925;88;20583;-81
2023/03/28 14:25:29;;;;;;;1999.90;999.90;;;13.10;91.10;;;;;;6676058;88;20648;-78
2023/03/28 14:35:31;;;;;;;1999.90;999.90;;;12.60;90.30;;;;;;6674279;89;20208;-78
2023/03/28 14:45:42;;;;;;;1999.90;999.90;;;12.50;88.70;;;;;;6675238;89;20216;-79
2023/03/28 14:55:43;;;;;;;1999.90;999.90;;;12.40;88.40;;;;;;6691349;88;20180;-81
2023/03/28 15:05:45;;;;;;;1999.90;999.90;;;12.30;89.90;;;;;;6733006;88;20296;-78
2023/03/28 15:15:47;;;;;;;1999.90;999.90;;;11.70;90.90;;;;;;6728734;88;20571;-77
2023/03/28 15:25:47;;;;;;;1999.90;999.90;;;11.70;90.00;;;;;;6730355;88;20242;-79
2023/03/28 15:35:48;;;;;;;1999.90;999.90;;;11.40;90.90;;;;;;6708958;88;20196;-79
2023/03/28 15:46:06;;;;;;;1999.90;999.90;;;11.10;91.00;;;;;;6753885;88;20258;-79
2023/03/28 15:56:17;;;;;;;1999.90;999.90;;;11.00;90.90;;;;;;6727555;88;20203;-80
2023/03/28 16:06:22;;;;;;;1999.90;999.90;;;11.00;91.00;;;;;;6753069;88;20207;-77
2023/03/28 16:16:26;;;;;;;1999.90;999.90;;;10.70;91.50;;;;;;6746691;88;20769;-78
2023/03/28 16:26:27;;;;;;;1999.90;999.90;;;10.70;92.00;;;;;;6741643;77;20226;-75
2023/03/28 16:36:27;;;;;;;1999.90;999.90;;;10.70;92.40;;;;;;6733693;88;20212;-75
2023/03/28 16:46:28;;;;;;;1999.90;999.90;;;10.60;92.20;;;;;;6734227;88;20729;-77
2023/03/28 16:56:29;;;;;;;1999.90;999.90;;;10.60;92.30;;;;;;6721494;88;20329;-77
2023/03/28 17:06:30;;;;;;;1999.90;999.90;;;10.20;92.00;;;;;;6716537;88;20620;-77
2023/03/28 17:16:30;;;;;;;1999.90;999.90;;;10.20;92.50;;;;;;6738456;88;20284;-78
2023/03/28 17:26:31;;;;;;;1999.90;999.90;;;10.10;92.90;;;;;;6718994;88;20216;-76
2023/03/28 17:36:33;;;;;;;1999.90;999.90;;;9.90;93.20;;;;;;6699245;88;20659;-76
2023/03/28 17:46:35;;;;;;;1999.90;999.90;;;9.80;93.40;;;;;;6725644;88;20208;-77
2023/03/28 17:56:36;;;;;;;1999.90;999.90;;;9.70;93.70;;;;;;6728872;88;20195;-77
2023/03/28 18:06:37;;;;;;;1999.90;999.90;;;9.60;94.10;;;;;;6691494;88;20237;-76
2023/03/28 18:16:38;;;;;;;1999.90;999.90;;;9.50;94.60;;;;;;6730559;88;20310;-77
2023/03/28 18:26:39;;;;;;;1999.90;999.90;;;9.40;94.30;;;;;;6730971;88;20230;-77
2023/03/28 18:36:40;;;;;;;1999.90;999.90;;;9.30;94.40;;;;;;6726750;88;20209;-76
2023/03/28 18:46:42;;;;;;;1999.90;999.90;;;9.30;94.50;;;;;;6722659;88;20649;-75
2023/03/28 18:56:42;;;;;;;1999.90;999.90;;;9.20;94.80;;;;;;6722253;88;20239;-78
2023/03/28 19:06:43;;;;;;;1999.90;999.90;;;8.80;97.50;;;;;;6731667;88;20185;-76
2023/03/28 19:16:44;;;;;;;1999.90;999.90;;;7.80;99.90;;;;;;6721070;88;20225;-78
2023/03/28 19:26:45;;;;;;;1999.90;999.90;;;6.80;99.90;;;;;;6729488;88;20192;-77
2023/03/28 19:36:46;;;;;;;1999.90;999.90;;;6.10;99.90;;;;;;6716591;87;20719;-78
2023/03/28 19:46:46;;;;;;;1999.90;999.90;;;6.00;99.90;;;;;;6683215;88;20186;-78
2023/03/28 19:56:47;;;;;;;1999.90;999.90;;;5.80;99.90;;;;;;6732176;88;20302;-77
2023/03/28 20:06:48;;;;;;;1999.90;999.90;;;5.70;99.90;;;;;;6707572;88;20503;-81
2023/03/28 20:16:48;;;;;;;1999.90;999.90;;;5.60;99.90;;;;;;6708804;88;20214;-79
2023/03/28 20:26:50;;;;;;;1999.90;999.90;;;5.60;99.90;;;;;;6719141;88;20204;-78
2023/03/28 20:36:50;;;;;;;1999.90;999.90;;;5.60;99.90;;;;;;6735233;88;20202;-79
2023/03/28 20:46:51;;;;;;;1999.90;999.90;;;5.60;99.90;;;;;;6748981;88;20723;-80
2023/03/28 20:56:52;;;;;;;1999.90;999.90;;;5.60;99.90;;;;;;6736244;88;20193;-80
2023/03/28 21:06:54;;;;;;;1999.90;999.90;;;5.50;99.90;;;;;;6755936;88;20189;-80
2023/03/28 21:16:56;;;;;;;1999.90;999.90;;;5.40;99.90;;;;;;6728332;88;20201;-80
2023/03/28 21:26:57;;;;;;;1999.90;999.90;;;5.40;99.90;;;;;;6738037;88;20224;-78
2023/03/28 21:36:57;;;;;;;1999.90;999.90;;;5.40;99.90;;;;;;6716623;88;20251;-78
2023/03/28 21:46:58;;;;;;;1999.90;999.90;;;5.40;99.90;;;;;;6750356;88;20196;-79
2023/03/28 21:56:59;;;;;;;1999.90;999.90;;;5.50;99.90;;;;;;6751289;88;20204;-78
2023/03/28 22:06:59;;;;;;;1999.90;999.90;;;5.50;99.90;;;;;;6743658;88;20202;-78
2023/03/28 22:17:00;;;;;;;1999.90;999.90;;;5.50;99.90;;;;;;6727714;88;20190;-79
2023/03/28 22:27:00;;;;;;;1999.90;999.90;;;5.50;99.90;;;;;;6748439;88;20247;-79
2023/03/28 22:37:01;;;;;;;1999.90;999.90;;;5.50;99.90;;;;;;6741267;88;20195;-80
2023/03/28 22:47:02;;;;;;;1999.90;999.90;;;5.50;99.90;;;;;;6743071;88;20251;-78
2023/03/28 22:57:04;;;;;;;1999.90;999.90;;;5.60;99.90;;;;;;6739421;88;20188;-77
2023/03/28 23:07:05;;;;;;;1999.90;999.90;;;5.50;99.90;;;;;;6749544;88;20211;-77
2023/03/28 23:17:06;;;;;;;1999.90;999.90;;;5.50;99.90;;;;;;6746732;88;20201;-78
2023/03/28 23:27:07;;;;;;;1999.90;999.90;;;5.60;99.90;;;;;;6742428;88;20238;-77
2023/03/28 23:37:08;;;;;;;1999.90;999.90;;;5.60;99.90;;;;;;6734038;88;20819;-77
2023/03/28 23:47:11;;;;;;;1999.90;999.90;;;5.60;99.90;;;;;;6656645;88;20203;-77
2023/03/28 23:57:11;;;;;;;1999.90;999.90;;;5.70;99.90;;;;;;6692958;88;20243;-78
